Time;durP1;ratioP1;P1;durP2;ratioP2;P2;SDS_P1;SDS_P2;PMS_P1;PMS_P2;Temp;Humidity;BMP_temperature;BMP_pressure;BME280_temperature;BME280_humidity;BME280_pressure;Samples;Min_cycle;Max_cycle;Signal;HPM_P1;HPM_P2
2021/12/18 00:01:18;;;;;;;26.97;11.90;;;8.30;58.30;;;;;;5079959;27;20540;-87
2021/12/18 00:03:45;;;;;;;28.43;15.10;;;8.30;58.30;;;;;;5065665;28;20451;-84
2021/12/18 00:06:13;;;;;;;44.30;13.67;;;8.30;58.40;;;;;;5045128;28;20470;-86
2021/12/18 00:08:42;;;;;;;23.93;12.80;;;8.40;58.30;;;;;;5078757;28;20971;-87
2021/12/18 00:11:10;;;;;;;27.93;13.00;;;8.30;58.50;;;;;;5081449;28;20488;-89
2021/12/18 00:13:36;;;;;;;45.17;16.00;;;8.20;58.60;;;;;;5097245;27;20984;-87
2021/12/18 00:16:04;;;;;;;38.13;13.57;;;8.20;58.60;;;;;;5095896;27;20452;-87
2021/12/18 00:18:31;;;;;;;37.17;14.37;;;8.30;58.80;;;;;;5077167;28;20546;-87
2021/12/18 00:20:59;;;;;;;27.53;14.90;;;8.30;58.60;;;;;;5090506;28;20479;-87
2021/12/18 00:23:26;;;;;;;36.80;13.37;;;8.30;58.60;;;;;;5076356;28;20457;-87
2021/12/18 00:25:55;;;;;;;47.33;14.30;;;8.20;58.90;;;;;;5076474;28;21267;-86
2021/12/18 00:28:22;;;;;;;44.53;14.00;;;8.20;58.80;;;;;;5092558;28;20475;-88
2021/12/18 00:30:49;;;;;;;29.93;12.00;;;8.10;59.00;;;;;;5050863;28;20960;-87
2021/12/18 00:33:16;;;;;;;87.00;14.30;;;8.10;59.10;;;;;;5093739;28;20463;-87
2021/12/18 00:35:43;;;;;;;29.30;11.73;;;7.90;59.20;;;;;;5093532;28;20451;-87
2021/12/18 00:38:10;;;;;;;71.27;12.80;;;7.80;59.30;;;;;;5078200;27;20455;-87
2021/12/18 00:40:46;;;;;;;34.90;12.37;;;7.80;59.40;;;;;;5064574;28;21035;-88
2021/12/18 00:43:26;;;;;;;30.90;14.67;;;7.70;59.50;;;;;;5082610;28;20447;-87
2021/12/18 00:45:53;;;;;;;26.17;12.57;;;7.80;59.50;;;;;;5084940;28;20440;-86
2021/12/18 00:48:21;;;;;;;33.07;11.67;;;7.90;59.40;;;;;;5065049;28;20974;-85
2021/12/18 00:50:48;;;;;;;16.47;8.83;;;7.80;59.40;;;;;;5102799;28;20478;-86
2021/12/18 00:53:16;;;;;;;33.03;10.47;;;7.60;59.60;;;;;;5079160;28;20957;-86
2021/12/18 00:55:43;;;;;;;19.47;9.43;;;7.70;59.60;;;;;;5080309;28;20454;-87
2021/12/18 00:58:10;;;;;;;42.57;9.10;;;7.90;59.40;;;;;;5083086;28;20814;-86
2021/12/18 01:00:41;;;;;;;38.13;11.53;;;7.80;59.40;;;;;;5051728;28;20471;-88
2021/12/18 01:03:16;;;;;;;30.60;11.90;;;7.80;59.40;;;;;;5081873;28;20478;-87
2021/12/18 01:05:43;;;;;;;27.27;10.60;;;7.80;59.50;;;;;;5083111;28;20475;-85
2021/12/18 01:08:10;;;;;;;23.83;10.33;;;7.80;59.50;;;;;;5075569;28;20529;-86
2021/12/18 01:10:53;;;;;;;22.87;10.67;;;7.90;59.40;;;;;;5088389;28;20474;-87
2021/12/18 01:13:25;;;;;;;21.50;10.17;;;7.90;59.30;;;;;;5067162;28;21016;-85
2021/12/18 01:15:56;;;;;;;40.07;11.67;;;7.70;59.60;;;;;;5096567;27;20931;-87
2021/12/18 01:23:52;;;;;;;19.67;8.63;;;7.80;59.50;;;;;;5053748;28;20446;-87
2021/12/18 01:26:19;;;;;;;19.27;9.50;;;7.90;59.30;;;;;;5081175;28;20451;-87
2021/12/18 01:28:46;;;;;;;23.60;11.17;;;8.00;59.10;;;;;;5082860;28;20504;-87
2021/12/18 01:31:14;;;;;;;22.37;10.10;;;8.00;58.80;;;;;;5082683;28;20531;-87
2021/12/18 01:33:42;;;;;;;31.63;11.23;;;8.10;58.70;;;;;;5078996;28;20501;-86
2021/12/18 01:36:09;;;;;;;17.87;9.30;;;8.10;58.60;;;;;;5084126;28;20467;-85
2021/12/18 01:38:36;;;;;;;21.33;8.83;;;8.10;58.50;;;;;;5100299;28;20554;-85
2021/12/18 01:41:04;;;;;;;19.67;9.50;;;8.20;58.20;;;;;;5103246;27;20466;-87
2021/12/18 01:44:33;;;;;;;16.17;8.70;;;8.20;58.00;;;;;;5099175;28;20528;-87
2021/12/18 01:47:04;;;;;;;21.00;8.83;;;8.10;58.00;;;;;;5080646;28;20463;-89
2021/12/18 01:52:19;;;;;;;14.60;7.20;;;8.00;58.20;;;;;;5102562;28;20945;-87
2021/12/18 01:54:47;;;;;;;13.73;8.37;;;7.80;58.20;;;;;;5085870;28;20454;-88
2021/12/18 01:57:15;;;;;;;18.60;8.87;;;7.90;58.30;;;;;;5083229;28;20461;-87
2021/12/18 01:59:47;;;;;;;14.07;7.97;;;7.70;58.40;;;;;;5061837;28;20447;-88
2021/12/18 02:02:16;;;;;;;17.77;9.00;;;7.70;59.20;;;;;;5097597;28;20458;-87
2021/12/18 02:04:43;;;;;;;15.03;8.13;;;7.80;58.60;;;;;;5102577;27;20533;-87
2021/12/18 02:07:10;;;;;;;12.93;7.80;;;7.80;58.50;;;;;;5101014;27;20474;-87
2021/12/18 02:09:55;;;;;;;11.63;7.33;;;7.90;58.30;;;;;;5073643;28;20501;-87
2021/12/18 02:12:28;;;;;;;14.10;8.37;;;7.70;58.30;;;;;;5083665;28;20457;-86
2021/12/18 02:20:38;;;;;;;16.90;8.23;;;7.90;58.20;;;;;;5085572;28;20553;-87
2021/12/18 02:23:06;;;;;;;19.70;9.00;;;7.90;58.10;;;;;;5086449;28;20538;-88
2021/12/18 02:25:35;;;;;;;18.73;10.30;;;7.90;57.90;;;;;;5071209;28;21137;-86
2021/12/18 02:28:03;;;;;;;16.03;8.33;;;8.00;57.90;;;;;;5101435;27;20822;-87
2021/12/18 02:30:31;;;;;;;14.37;6.53;;;8.10;57.80;;;;;;5072669;28;20971;-87
2021/12/18 02:32:58;;;;;;;16.00;7.77;;;8.10;57.70;;;;;;5097448;28;20525;-87
2021/12/18 02:35:29;;;;;;;23.77;10.30;;;8.00;57.80;;;;;;5055275;28;20461;-87
2021/12/18 02:38:08;;;;;;;14.27;8.57;;;8.00;57.80;;;;;;5083323;28;20454;-88
2021/12/18 02:41:01;;;;;;;14.73;7.77;;;8.10;57.70;;;;;;5087057;28;20480;-86
2021/12/18 02:43:31;;;;;;;14.93;7.50;;;8.20;57.60;;;;;;5100521;28;20540;-88
2021/12/18 02:45:59;;;;;;;18.10;7.50;;;8.30;57.50;;;;;;5067073;27;20437;-84
2021/12/18 02:48:28;;;;;;;15.87;7.60;;;8.10;57.40;;;;;;5103132;28;21050;-89
2021/12/18 02:50:57;;;;;;;16.97;8.60;;;8.10;57.70;;;;;;5098788;27;20458;-87
2021/12/18 02:53:25;;;;;;;17.07;8.30;;;8.10;57.80;;;;;;5096644;28;20451;-84
2021/12/18 02:55:56;;;;;;;14.90;7.87;;;8.10;57.80;;;;;;5076433;28;20450;-87
2021/12/18 02:58:24;;;;;;;17.07;8.23;;;8.00;58.00;;;;;;5078687;28;20446;-87
2021/12/18 03:00:52;;;;;;;16.00;7.50;;;8.10;57.90;;;;;;5064932;28;20847;-88
2021/12/18 03:03:21;;;;;;;11.80;7.83;;;8.00;58.10;;;;;;5078169;28;20476;-87
2021/12/18 03:05:58;;;;;;;13.20;8.40;;;7.80;58.90;;;;;;5093834;27;20466;-87
2021/12/18 03:08:39;;;;;;;14.13;8.60;;;7.90;58.30;;;;;;5095303;27;20572;-87
2021/12/18 03:22:41;;;;;;;12.73;7.37;;;8.20;57.60;;;;;;5087263;27;20508;-87
2021/12/18 03:25:11;;;;;;;14.20;7.47;;;8.20;57.40;;;;;;5085488;28;21109;-88
2021/12/18 03:27:40;;;;;;;17.90;6.20;;;8.20;57.50;;;;;;5078922;28;20528;-85
2021/12/18 03:30:08;;;;;;;17.10;7.90;;;8.20;57.60;;;;;;5098662;28;20463;-89
2021/12/18 03:32:35;;;;;;;14.90;8.73;;;8.00;57.90;;;;;;5084919;28;20451;-87
2021/12/18 03:35:02;;;;;;;9.60;7.03;;;8.10;58.00;;;;;;5094055;28;20451;-88
2021/12/18 03:37:29;;;;;;;13.77;7.13;;;8.10;57.70;;;;;;5078465;28;20804;-87
2021/12/18 03:39:56;;;;;;;16.43;9.67;;;8.00;57.90;;;;;;5097199;27;20458;-89
2021/12/18 03:42:24;;;;;;;13.77;7.60;;;8.10;57.90;;;;;;5076424;28;20458;-87
2021/12/18 03:44:51;;;;;;;11.17;6.70;;;8.10;57.70;;;;;;5059913;28;20990;-86
2021/12/18 03:47:18;;;;;;;11.70;7.17;;;8.10;57.70;;;;;;5051393;28;20649;-88
2021/12/18 03:49:45;;;;;;;10.50;5.50;;;8.10;57.50;;;;;;5095844;27;20478;-87
2021/12/18 03:52:12;;;;;;;14.07;7.70;;;8.10;57.70;;;;;;5093048;27;20474;-87
2021/12/18 03:54:39;;;;;;;17.27;8.57;;;8.10;58.10;;;;;;5084084;28;20462;-85
2021/12/18 03:57:07;;;;;;;14.47;7.50;;;8.20;57.90;;;;;;5060792;28;20795;-87
2021/12/18 03:59:35;;;;;;;12.47;6.50;;;8.30;57.50;;;;;;5094434;28;20454;-87
2021/12/18 04:02:02;;;;;;;13.83;8.57;;;8.30;57.50;;;;;;5082168;27;20562;-87
2021/12/18 04:04:29;;;;;;;14.20;7.97;;;8.40;57.40;;;;;;5062131;28;20447;-88
2021/12/18 04:06:56;;;;;;;10.80;6.50;;;8.30;57.30;;;;;;5077329;28;21054;-85
2021/12/18 04:09:23;;;;;;;14.43;7.53;;;8.00;58.10;;;;;;5093331;28;20472;-88
2021/12/18 04:11:50;;;;;;;10.13;7.43;;;8.10;58.00;;;;;;5077139;28;20476;-87
2021/12/18 04:14:18;;;;;;;13.60;7.63;;;8.20;57.60;;;;;;5078110;28;20458;-88
2021/12/18 04:16:46;;;;;;;13.43;7.13;;;8.00;57.70;;;;;;5060448;28;20962;-88
2021/12/18 04:19:13;;;;;;;19.20;7.40;;;8.10;58.10;;;;;;5075519;28;20443;-87
2021/12/18 04:21:40;;;;;;;16.63;7.63;;;7.90;58.20;;;;;;5075180;28;20470;-87
2021/12/18 04:24:08;;;;;;;14.13;7.37;;;7.80;58.50;;;;;;5093595;28;20456;-88
2021/12/18 04:26:36;;;;;;;21.53;7.07;;;8.00;58.60;;;;;;5078394;28;20448;-88
2021/12/18 04:29:05;;;;;;;14.60;7.60;;;8.10;58.00;;;;;;5061839;28;20469;-87
2021/12/18 04:31:32;;;;;;;12.67;6.23;;;8.20;57.90;;;;;;5077355;28;20488;-87
2021/12/18 04:34:01;;;;;;;12.73;7.73;;;8.20;57.80;;;;;;5075898;28;20879;-87
2021/12/18 04:36:28;;;;;;;14.83;5.80;;;8.30;57.50;;;;;;5062632;27;20448;-87
2021/12/18 04:38:55;;;;;;;14.93;7.67;;;8.30;57.40;;;;;;5096412;28;20948;-87
2021/12/18 04:41:24;;;;;;;14.80;8.07;;;8.20;57.60;;;;;;5093224;27;20466;-87
2021/12/18 04:43:52;;;;;;;17.80;9.80;;;8.10;57.90;;;;;;5075646;28;20460;-87
2021/12/18 04:46:19;;;;;;;13.90;7.80;;;8.20;57.90;;;;;;5055957;28;20447;-87
2021/12/18 04:48:46;;;;;;;13.33;7.13;;;8.20;57.80;;;;;;5062787;28;20872;-88
2021/12/18 04:51:15;;;;;;;10.73;7.37;;;8.30;57.30;;;;;;5050621;28;20549;-87
2021/12/18 04:53:42;;;;;;;13.30;7.20;;;8.20;57.60;;;;;;5084897;27;20450;-87
2021/12/18 04:56:09;;;;;;;12.53;8.40;;;8.30;57.50;;;;;;5077961;28;20841;-87
2021/12/18 04:58:36;;;;;;;14.40;6.70;;;8.40;57.50;;;;;;5075116;28;20467;-87
2021/12/18 05:01:03;;;;;;;12.40;7.17;;;8.40;57.50;;;;;;5074055;28;20482;-86
2021/12/18 05:03:30;;;;;;;15.83;7.43;;;8.40;57.20;;;;;;5080002;28;20482;-88
2021/12/18 05:05:59;;;;;;;13.83;7.77;;;8.40;57.00;;;;;;5072119;28;20452;-86
2021/12/18 05:08:27;;;;;;;16.00;8.60;;;8.40;57.20;;;;;;5069930;28;20471;-87
2021/12/18 05:10:54;;;;;;;16.20;8.50;;;8.40;57.50;;;;;;5093346;28;20475;-88
2021/12/18 05:13:21;;;;;;;15.83;7.40;;;8.30;57.60;;;;;;5058074;28;20444;-88
2021/12/18 05:15:48;;;;;;;13.67;7.77;;;8.30;57.80;;;;;;5076352;28;21033;-87
2021/12/18 05:18:15;;;;;;;11.60;6.83;;;8.30;57.70;;;;;;5059515;28;20447;-86
2021/12/18 05:20:42;;;;;;;16.00;7.43;;;8.10;57.90;;;;;;5060204;28;20493;-87
2021/12/18 05:23:09;;;;;;;20.10;7.83;;;8.20;58.10;;;;;;5067566;28;20984;-87
2021/12/18 05:25:37;;;;;;;12.60;7.83;;;8.30;57.70;;;;;;5074160;28;20460;-86
2021/12/18 05:28:05;;;;;;;14.67;7.97;;;8.40;57.40;;;;;;5059622;28;20479;-87
2021/12/18 05:30:32;;;;;;;13.37;7.97;;;8.30;57.80;;;;;;5077225;27;20922;-87
2021/12/18 05:32:59;;;;;;;16.20;8.20;;;8.40;57.90;;;;;;5059597;28;20458;-86
2021/12/18 05:35:26;;;;;;;10.30;6.63;;;8.50;57.70;;;;;;5094477;28;20454;-87
2021/12/18 05:37:54;;;;;;;12.23;7.33;;;8.50;57.60;;;;;;5093360;28;20471;-87
2021/12/18 05:40:23;;;;;;;13.20;7.13;;;8.40;57.80;;;;;;5072861;28;20486;-88
2021/12/18 05:42:53;;;;;;;15.00;7.60;;;8.40;57.80;;;;;;5047928;28;20800;-87
2021/12/18 05:45:21;;;;;;;14.80;7.73;;;8.40;57.90;;;;;;5081108;28;20472;-85
2021/12/18 05:47:48;;;;;;;14.30;8.47;;;8.40;57.70;;;;;;5097455;28;20459;-87
2021/12/18 05:50:18;;;;;;;9.90;6.90;;;8.40;57.80;;;;;;5066114;28;20470;-85
2021/12/18 05:52:47;;;;;;;16.83;7.50;;;8.40;58.00;;;;;;5093110;28;20460;-86
2021/12/18 05:55:15;;;;;;;15.77;8.50;;;8.40;57.70;;;;;;5093418;28;21332;-87
2021/12/18 05:57:42;;;;;;;19.13;7.70;;;8.50;57.70;;;;;;5091766;28;20455;-87
2021/12/18 06:00:12;;;;;;;19.07;9.10;;;8.40;57.60;;;;;;5093398;28;20452;-89
2021/12/18 06:02:39;;;;;;;17.43;7.80;;;8.40;57.60;;;;;;5073922;28;20572;-88
2021/12/18 06:05:07;;;;;;;16.17;8.03;;;8.40;58.00;;;;;;5073319;28;20462;-88
2021/12/18 06:07:51;;;;;;;18.17;9.50;;;8.50;58.00;;;;;;5094243;28;20463;-87
2021/12/18 06:10:18;;;;;;;17.93;9.33;;;8.60;57.80;;;;;;5046173;28;20585;-87
2021/12/18 06:12:45;;;;;;;18.73;10.20;;;8.60;57.60;;;;;;5093144;28;20450;-87
2021/12/18 06:15:13;;;;;;;18.47;9.67;;;8.60;57.50;;;;;;5083571;28;20458;-88
2021/12/18 06:17:40;;;;;;;16.70;8.80;;;8.60;57.40;;;;;;5057865;28;20466;-87
2021/12/18 06:20:09;;;;;;;13.43;8.73;;;8.60;57.50;;;;;;5089944;28;20826;-87
2021/12/18 06:22:36;;;;;;;18.23;8.90;;;8.60;57.50;;;;;;5076190;28;20984;-89
2021/12/18 06:25:03;;;;;;;14.43;9.37;;;8.60;57.50;;;;;;5090672;28;20789;-87
2021/12/18 06:27:30;;;;;;;16.70;9.40;;;8.60;57.50;;;;;;5062615;28;20842;-88
2021/12/18 06:29:58;;;;;;;14.30;9.73;;;8.70;57.60;;;;;;5054814;28;20471;-87
2021/12/18 06:32:26;;;;;;;19.07;11.07;;;8.70;57.60;;;;;;5063604;28;20469;-87
2021/12/18 06:34:53;;;;;;;16.33;9.50;;;8.70;57.70;;;;;;5091221;28;20451;-87
2021/12/18 06:37:20;;;;;;;18.40;10.07;;;8.60;57.80;;;;;;5074370;28;20919;-84
2021/12/18 06:39:47;;;;;;;19.33;9.40;;;8.60;57.90;;;;;;5064815;28;20439;-87
2021/12/18 06:42:14;;;;;;;14.10;7.90;;;8.60;58.00;;;;;;5074265;28;20873;-85
2021/12/18 06:44:41;;;;;;;12.70;8.00;;;8.60;58.00;;;;;;5090548;28;20438;-87
2021/12/18 06:47:08;;;;;;;14.43;7.40;;;8.60;57.90;;;;;;5075240;28;20463;-87
2021/12/18 06:49:36;;;;;;;14.87;8.37;;;8.70;57.80;;;;;;5072351;28;20475;-89
2021/12/18 06:52:04;;;;;;;15.40;9.20;;;8.60;57.80;;;;;;5075736;28;20468;-89
2021/12/18 06:54:31;;;;;;;11.43;7.90;;;8.60;58.00;;;;;;5080239;28;20444;-88
2021/12/18 06:56:59;;;;;;;12.37;7.33;;;8.50;58.10;;;;;;5081338;28;20464;-87
2021/12/18 06:59:26;;;;;;;14.13;8.10;;;8.60;58.10;;;;;;5065316;28;20493;-88
2021/12/18 07:01:53;;;;;;;15.87;7.90;;;8.60;58.00;;;;;;5064455;28;20475;-88
2021/12/18 07:04:20;;;;;;;13.27;7.23;;;8.70;58.10;;;;;;5081135;28;20439;-88
2021/12/18 07:06:48;;;;;;;15.93;8.27;;;8.50;58.50;;;;;;5104753;27;20881;-88
2021/12/18 07:09:15;;;;;;;17.27;9.90;;;8.40;58.50;;;;;;5085817;28;20825;-87
2021/12/18 07:11:44;;;;;;;16.07;8.37;;;8.40;58.40;;;;;;5083538;28;20463;-87
2021/12/18 07:14:11;;;;;;;14.60;8.70;;;8.60;58.30;;;;;;5079655;28;20954;-88
2021/12/18 07:16:38;;;;;;;14.57;7.70;;;8.70;58.00;;;;;;5098702;28;20807;-87
2021/12/18 07:19:05;;;;;;;17.27;7.73;;;8.70;57.90;;;;;;5085425;27;20454;-88
2021/12/18 07:21:32;;;;;;;21.80;9.77;;;8.70;58.50;;;;;;5096522;28;20479;-88
2021/12/18 07:24:00;;;;;;;16.03;8.10;;;8.80;57.70;;;;;;5058187;28;20554;-88
2021/12/18 07:26:28;;;;;;;16.73;9.70;;;8.80;57.80;;;;;;5066556;28;20450;-88
2021/12/18 07:28:54;;;;;;;18.77;9.57;;;8.80;57.80;;;;;;5079435;28;20478;-87
2021/12/18 07:31:21;;;;;;;17.10;10.63;;;8.80;57.70;;;;;;5053518;28;20473;-89
2021/12/18 07:33:48;;;;;;;13.77;7.80;;;8.80;57.60;;;;;;5066139;28;21041;-88
2021/12/18 07:36:15;;;;;;;13.70;9.20;;;8.70;57.70;;;;;;5098213;27;20536;-88
2021/12/18 07:38:43;;;;;;;15.07;9.50;;;8.70;57.90;;;;;;5097884;27;20443;-88
2021/12/18 07:41:12;;;;;;;18.30;9.90;;;8.60;57.90;;;;;;5069519;28;21187;-87
2021/12/18 07:43:39;;;;;;;18.67;10.80;;;8.50;58.20;;;;;;5100985;27;20938;-87
2021/12/18 07:46:06;;;;;;;22.63;11.40;;;8.60;58.20;;;;;;5084105;28;20450;-87
2021/12/18 07:48:33;;;;;;;23.90;13.03;;;8.60;58.30;;;;;;5077246;28;20549;-89
2021/12/18 07:51:00;;;;;;;18.23;11.30;;;8.60;58.30;;;;;;5067832;28;20900;-87
2021/12/18 07:53:27;;;;;;;22.20;12.67;;;8.70;58.20;;;;;;5096685;28;20505;-87
2021/12/18 07:55:54;;;;;;;20.67;13.03;;;8.70;58.30;;;;;;5079652;28;20877;-88
2021/12/18 07:58:22;;;;;;;18.70;11.90;;;8.60;58.30;;;;;;5101375;27;20638;-88
2021/12/18 08:00:49;;;;;;;16.70;10.40;;;8.70;58.20;;;;;;5059746;28;21119;-87
2021/12/18 08:03:16;;;;;;;14.03;8.80;;;8.70;58.20;;;;;;5066569;28;20822;-87
2021/12/18 08:05:43;;;;;;;13.30;9.40;;;8.70;58.10;;;;;;5090509;28;20860;-88
2021/12/18 08:08:10;;;;;;;23.80;10.77;;;8.70;58.10;;;;;;5053468;28;20463;-87
2021/12/18 08:10:37;;;;;;;17.97;10.57;;;8.80;58.10;;;;;;5052820;28;20481;-86
2021/12/18 08:13:05;;;;;;;17.93;9.00;;;8.80;58.20;;;;;;5081158;28;20439;-86
2021/12/18 08:15:33;;;;;;;19.83;9.83;;;8.90;58.10;;;;;;5080994;28;20447;-88
2021/12/18 08:18:06;;;;;;;19.87;11.00;;;8.80;58.00;;;;;;5077477;28;20541;-85
2021/12/18 08:20:33;;;;;;;12.73;8.37;;;8.70;58.40;;;;;;5095804;28;20475;-87
2021/12/18 08:23:01;;;;;;;16.10;8.70;;;8.70;58.50;;;;;;5082699;28;21151;-88
2021/12/18 08:25:28;;;;;;;14.60;9.20;;;8.90;58.30;;;;;;5099786;27;20454;-88
2021/12/18 08:27:55;;;;;;;17.73;9.53;;;8.90;58.20;;;;;;5069271;28;20518;-87
2021/12/18 08:30:23;;;;;;;17.30;9.67;;;8.90;58.10;;;;;;5098754;27;21069;-88
2021/12/18 08:32:52;;;;;;;14.13;9.13;;;9.00;58.00;;;;;;5079105;28;20451;-87
2021/12/18 08:35:19;;;;;;;14.33;8.30;;;9.00;57.70;;;;;;5081012;28;20460;-87
2021/12/18 08:37:46;;;;;;;17.30;9.40;;;9.00;57.80;;;;;;5094880;28;20938;-88
2021/12/18 08:40:14;;;;;;;17.53;8.90;;;8.90;57.90;;;;;;5097057;27;21005;-87
2021/12/18 08:42:41;;;;;;;18.43;8.80;;;8.90;58.60;;;;;;5098474;27;20458;-88
2021/12/18 08:45:09;;;;;;;16.40;10.30;;;8.80;58.30;;;;;;5096206;28;20561;-87
2021/12/18 08:47:36;;;;;;;29.13;9.67;;;8.90;58.30;;;;;;5063140;27;20542;-88
2021/12/18 08:50:09;;;;;;;12.10;8.00;;;8.90;58.10;;;;;;5098457;27;20651;-88
2021/12/18 08:52:36;;;;;;;19.43;9.80;;;8.80;58.40;;;;;;5101737;27;20454;-87
2021/12/18 08:55:05;;;;;;;16.87;9.87;;;8.90;58.30;;;;;;5075748;28;20451;-87
2021/12/18 08:57:31;;;;;;;18.07;10.50;;;9.00;58.10;;;;;;5079708;28;20999;-86
2021/12/18 08:59:58;;;;;;;21.83;11.97;;;9.00;58.10;;;;;;5094863;28;20451;-86
2021/12/18 09:02:25;;;;;;;27.37;12.87;;;9.10;58.10;;;;;;5076729;28;20459;-87
2021/12/18 09:04:52;;;;;;;35.10;18.00;;;9.10;57.90;;;;;;5097930;27;20455;-88
2021/12/18 09:07:22;;;;;;;23.30;14.27;;;8.90;58.30;;;;;;5096506;28;20958;-87
2021/12/18 09:09:49;;;;;;;20.77;13.30;;;8.90;58.30;;;;;;5077978;28;20508;-87
2021/12/18 09:12:16;;;;;;;20.70;13.17;;;9.00;58.30;;;;;;5062834;28;20658;-86
2021/12/18 09:14:43;;;;;;;23.30;13.70;;;9.10;58.20;;;;;;5064937;28;20812;-87
2021/12/18 09:17:10;;;;;;;29.77;15.00;;;9.20;58.00;;;;;;5059580;28;20447;-87
2021/12/18 09:19:38;;;;;;;25.63;14.40;;;9.20;58.00;;;;;;5079776;28;20494;-85
2021/12/18 09:22:06;;;;;;;21.70;13.50;;;9.20;58.30;;;;;;5080740;28;20558;-88
2021/12/18 09:24:35;;;;;;;23.53;13.20;;;9.20;58.20;;;;;;5080606;28;20466;-87
2021/12/18 09:27:02;;;;;;;19.30;12.50;;;9.20;58.10;;;;;;5098444;28;20542;-87
2021/12/18 09:29:29;;;;;;;26.70;14.10;;;9.20;58.10;;;;;;5059838;28;20542;-87
2021/12/18 09:31:56;;;;;;;18.30;12.00;;;9.20;58.20;;;;;;5097519;28;20468;-87
2021/12/18 09:34:26;;;;;;;26.50;14.20;;;9.20;58.20;;;;;;5097380;28;20446;-87
2021/12/18 09:36:53;;;;;;;19.27;12.13;;;9.10;58.60;;;;;;5094524;28;20587;-87
2021/12/18 09:39:20;;;;;;;21.80;13.40;;;8.90;58.80;;;;;;5078700;28;20444;-85
2021/12/18 09:41:49;;;;;;;21.93;14.00;;;9.00;59.10;;;;;;5082033;28;20471;-87
2021/12/18 09:44:22;;;;;;;25.83;11.93;;;9.10;58.80;;;;;;5077753;28;20462;-87
2021/12/18 09:46:49;;;;;;;22.07;11.80;;;9.20;58.40;;;;;;5093381;28;20529;-87
2021/12/18 09:49:17;;;;;;;26.97;12.60;;;9.00;58.70;;;;;;5075529;28;20545;-87
2021/12/18 09:51:44;;;;;;;22.33;12.30;;;9.10;58.80;;;;;;5076301;28;20479;-87
2021/12/18 09:54:12;;;;;;;29.07;12.60;;;9.10;58.80;;;;;;5078713;28;20542;-86
2021/12/18 09:56:39;;;;;;;26.13;13.60;;;9.00;59.10;;;;;;5076723;28;20882;-86
2021/12/18 09:59:08;;;;;;;20.03;12.20;;;9.10;59.30;;;;;;5078126;28;20845;-87
2021/12/18 10:01:35;;;;;;;19.17;11.20;;;9.20;59.00;;;;;;5068360;28;20585;-87
2021/12/18 10:04:04;;;;;;;18.93;11.10;;;9.20;58.70;;;;;;5066666;28;20431;-87
2021/12/18 10:06:43;;;;;;;19.67;11.43;;;9.20;58.70;;;;;;5080578;28;20827;-87
2021/12/18 10:09:12;;;;;;;26.97;13.17;;;9.00;59.10;;;;;;5079220;28;20473;-88
2021/12/18 10:11:46;;;;;;;25.70;13.60;;;9.00;59.40;;;;;;5067338;28;20674;-86
2021/12/18 10:14:15;;;;;;;26.53;17.20;;;9.00;59.40;;;;;;5094721;28;20454;-87
2021/12/18 10:16:44;;;;;;;24.80;14.63;;;9.00;59.20;;;;;;5095664;28;20484;-86
2021/12/18 10:19:25;;;;;;;27.80;15.43;;;9.20;59.20;;;;;;5092219;28;20442;-87
2021/12/18 10:21:57;;;;;;;27.90;16.00;;;9.30;58.80;;;;;;5096832;28;20474;-89
2021/12/18 10:24:25;;;;;;;25.43;14.50;;;9.50;58.60;;;;;;5094469;28;20452;-87
2021/12/18 10:26:52;;;;;;;22.40;14.73;;;9.40;58.30;;;;;;5079779;28;20463;-86
2021/12/18 10:29:31;;;;;;;26.40;16.00;;;9.30;58.70;;;;;;5082149;28;20458;-87
2021/12/18 10:32:05;;;;;;;23.07;16.17;;;9.30;58.90;;;;;;5068897;27;20482;-87
2021/12/18 10:34:32;;;;;;;27.50;14.23;;;9.40;58.70;;;;;;5061259;28;20543;-87
2021/12/18 10:37:18;;;;;;;23.83;13.07;;;9.40;58.60;;;;;;5095285;27;20984;-87
2021/12/18 10:39:57;;;;;;;20.97;12.87;;;9.50;58.40;;;;;;5099088;27;20540;-89
2021/12/18 10:42:26;;;;;;;22.77;13.57;;;9.60;58.40;;;;;;5101747;27;20463;-89
2021/12/18 10:45:11;;;;;;;25.60;13.90;;;9.60;58.10;;;;;;5084538;28;20451;-87
2021/12/18 10:47:53;;;;;;;23.07;12.67;;;9.60;58.20;;;;;;5094136;27;20813;-87
2021/12/18 10:50:36;;;;;;;23.17;12.93;;;9.50;58.30;;;;;;5079759;28;20718;-86
2021/12/18 10:53:07;;;;;;;22.07;13.27;;;9.40;58.40;;;;;;5077646;28;20577;-87
2021/12/18 10:55:41;;;;;;;20.70;13.47;;;9.40;58.60;;;;;;5095813;28;20539;-87
2021/12/18 10:58:11;;;;;;;25.83;14.20;;;9.30;58.80;;;;;;5097803;27;20456;-87
2021/12/18 11:00:52;;;;;;;28.00;13.67;;;9.50;58.60;;;;;;5097587;28;20525;-87
2021/12/18 11:03:26;;;;;;;28.03;14.43;;;9.20;58.70;;;;;;5081769;28;20449;-87
2021/12/18 11:06:19;;;;;;;21.10;13.73;;;9.20;58.80;;;;;;5079550;28;21179;-87
2021/12/18 11:08:56;;;;;;;25.60;13.97;;;9.20;59.50;;;;;;5060353;28;20748;-87
2021/12/18 11:14:12;;;;;;;24.33;13.73;;;9.30;58.50;;;;;;5080015;28;20462;-88
2021/12/18 11:16:43;;;;;;;26.93;13.43;;;9.30;58.50;;;;;;5061451;28;20450;-87
2021/12/18 11:19:13;;;;;;;31.20;14.10;;;9.30;58.50;;;;;;5076926;28;20486;-89
2021/12/18 11:21:43;;;;;;;24.53;13.30;;;9.40;58.10;;;;;;5072123;27;20825;-87
2021/12/18 11:24:11;;;;;;;23.87;12.33;;;9.50;57.80;;;;;;5098882;28;20481;-87
2021/12/18 11:26:42;;;;;;;29.10;13.33;;;9.60;57.60;;;;;;5063684;28;20451;-89
2021/12/18 11:29:14;;;;;;;30.73;15.20;;;9.60;57.70;;;;;;5063219;28;21038;-88
2021/12/18 11:31:43;;;;;;;20.43;12.90;;;9.60;57.80;;;;;;5095601;28;20474;-86
2021/12/18 11:34:10;;;;;;;22.93;13.37;;;9.70;57.70;;;;;;5078902;28;20453;-87
2021/12/18 11:36:40;;;;;;;33.70;18.80;;;9.50;57.40;;;;;;5093910;28;20798;-87
2021/12/18 11:39:09;;;;;;;49.03;24.20;;;9.50;57.90;;;;;;5047556;28;20447;-86
2021/12/18 11:41:37;;;;;;;30.93;17.87;;;9.40;58.00;;;;;;5068638;28;20489;-87
2021/12/18 11:44:25;;;;;;;22.53;13.07;;;9.40;58.10;;;;;;5074717;28;20452;-87
2021/12/18 11:46:54;;;;;;;25.57;13.63;;;9.40;58.30;;;;;;5074855;28;20878;-88
2021/12/18 11:49:25;;;;;;;19.50;11.00;;;9.50;58.10;;;;;;5062336;28;20436;-87
2021/12/18 11:52:01;;;;;;;22.63;12.60;;;9.40;57.60;;;;;;5083135;27;20475;-88
2021/12/18 11:54:44;;;;;;;22.00;13.10;;;9.40;57.90;;;;;;5069088;28;20842;-87
2021/12/18 11:57:32;;;;;;;23.00;13.27;;;9.50;57.90;;;;;;5095794;28;20491;-89
2021/12/18 11:59:59;;;;;;;42.40;20.40;;;9.40;57.60;;;;;;5063023;28;20512;-84
2021/12/18 12:02:45;;;;;;;24.67;16.00;;;9.30;58.10;;;;;;5075851;28;20825;-87
2021/12/18 12:05:12;;;;;;;24.37;15.90;;;9.30;58.00;;;;;;5077207;28;20452;-87
2021/12/18 12:07:39;;;;;;;27.77;15.47;;;9.40;58.00;;;;;;5094217;28;20451;-86
2021/12/18 12:10:20;;;;;;;28.37;14.57;;;9.50;57.90;;;;;;5077284;28;20463;-86
2021/12/18 12:12:53;;;;;;;19.63;10.53;;;9.50;57.40;;;;;;5087586;28;20450;-87
2021/12/18 12:15:22;;;;;;;24.40;12.27;;;9.50;57.20;;;;;;5099366;27;20996;-85
2021/12/18 12:17:58;;;;;;;21.47;11.63;;;9.30;57.40;;;;;;5060371;28;20985;-88
2021/12/18 12:20:39;;;;;;;22.70;13.00;;;9.20;57.90;;;;;;5076425;28;20470;-88
2021/12/18 12:23:07;;;;;;;24.87;13.63;;;9.20;57.80;;;;;;5090469;28;20469;-86
2021/12/18 12:25:42;;;;;;;21.73;14.27;;;9.30;57.70;;;;;;5075874;28;20455;-86
2021/12/18 12:28:12;;;;;;;21.40;12.07;;;9.50;57.50;;;;;;5097377;27;20716;-89
2021/12/18 12:30:44;;;;;;;24.37;13.17;;;9.50;57.50;;;;;;5076746;28;20471;-85
2021/12/18 12:33:21;;;;;;;22.70;13.50;;;9.50;57.30;;;;;;5079022;28;20961;-87
2021/12/18 12:36:10;;;;;;;27.10;15.23;;;9.50;57.60;;;;;;5096379;27;20458;-88
2021/12/18 12:38:41;;;;;;;29.27;16.10;;;9.60;57.40;;;;;;5060824;28;20837;-87
2021/12/18 12:41:31;;;;;;;26.40;14.73;;;9.70;57.40;;;;;;5077012;28;20474;-84
2021/12/18 12:44:01;;;;;;;28.10;17.70;;;9.70;57.10;;;;;;5078256;28;20470;-86
2021/12/18 12:46:30;;;;;;;28.63;16.10;;;9.70;57.10;;;;;;5076754;28;20459;-87
2021/12/18 12:49:07;;;;;;;28.40;15.97;;;9.60;57.20;;;;;;5072101;28;20450;-87
2021/12/18 12:52:00;;;;;;;31.67;17.80;;;9.50;57.30;;;;;;5078089;28;21049;-87
2021/12/18 12:54:54;;;;;;;23.63;12.97;;;9.50;57.10;;;;;;5060388;28;20445;-88
2021/12/18 12:57:36;;;;;;;24.47;14.30;;;9.40;57.10;;;;;;5074984;28;20792;-85
2021/12/18 13:00:42;;;;;;;34.67;16.13;;;9.50;57.20;;;;;;5083745;28;20851;-87
2021/12/18 13:03:15;;;;;;;28.10;17.60;;;9.50;57.20;;;;;;5066225;28;20938;-88
2021/12/18 13:05:57;;;;;;;26.73;15.00;;;9.50;57.20;;;;;;5076731;28;20939;-88
2021/12/18 13:08:26;;;;;;;74.13;27.43;;;9.60;57.20;;;;;;5077522;28;20451;-87
2021/12/18 13:10:55;;;;;;;31.57;17.03;;;9.60;57.30;;;;;;5084023;28;20466;-87
2021/12/18 13:13:24;;;;;;;24.27;14.87;;;9.60;57.10;;;;;;5073491;28;20539;-88
2021/12/18 13:15:56;;;;;;;23.27;12.90;;;9.50;57.30;;;;;;5054708;28;21047;-87
2021/12/18 13:18:24;;;;;;;24.50;13.53;;;9.50;57.30;;;;;;5092690;27;20462;-87
2021/12/18 13:20:56;;;;;;;23.50;12.90;;;9.60;57.20;;;;;;5075336;28;20474;-88
2021/12/18 13:23:36;;;;;;;25.27;13.87;;;9.60;57.10;;;;;;5076790;28;20468;-87
2021/12/18 13:26:04;;;;;;;25.93;13.27;;;9.60;57.00;;;;;;5081419;28;20454;-87